Terminal Aerodrome Forecast
Issued by NWS Wilmington, NC

Current Version | Previous Version | Graphics & Text | Print | Product List | Glossary Off
Versions: 1 2 3 4 5 6 7 8 9 10 11 12 13 14 15 16 17 18 19 20

596
FTUS42 KILM 240520
TAFMYR
TAF
KMYR 240520Z 2406/2506 04005KT P6SM SKC
     FM241700 05011KT P6SM SCT035
     FM242300 05008KT P6SM FEW250=

USA.gov is the U.S. government's official web portal to all federal, state and local government web resources and services.